Terminal Aerodrome Forecast
Issued by NWS Jackson, MS

Home | Current Version | Previous Version | Text Only | Print | Product List | Glossary On
Versions: 1 2 3 4 5 6 7 8 9 10 11 12 13
554
FTUS44 KJAN 221141
TAFMEI
TAF
KMEI 221141Z 2212/2312 17011KT P6SM OVC009
     FM221400 18011KT P6SM SHRA VCTS BKN015CB OVC025
     FM221700 20011KT 3SM SHRA BR VCTS BKN025CB OVC050
     FM221900 21009KT P6SM VCSH BKN025
     FM230100 25006KT P6SM FEW250=

USA.gov is the U.S. government's official web portal to all federal, state and local government web resources and services.